Impacts TAF Board INFO
FOR SITUATIONAL AWARENESS. NOT TO BE USED FOR FLIGHT PLANNING PURPOSES.
IDs:

KHDC - Hammond/Northshore R, LA, US

Issued at 1725 UTC 24 Jun 2018
Updated at 1809 UTC 24 Jun 2018
Potential Impact None Slight Moderate High
Time1755Z 24/19Z 24/20Z 24/21Z 24/22Z 24/23Z 25/00Z 25/01Z 25/02Z 25/03Z 25/04Z 25/05Z 25/06Z 25/07Z>>
Type OBS PRVL PRVL PRVL PRVL PRVL PRVL PRVL PRVL PRVL PRVL PRVL PRVL PRVL
VIS 10 >6 >6 >6 >6 >6 >6 >6 >6 >6 >6 >6 >6 >6
CIG -- 50 50 50 50 50 -- -- -- -- -- -- -- --
Cover SCT BKN BKN BKN BKN BKN FEW FEW FEW FEW FEW FEW FEW FEW
FltCat VFR VFR VFR VFR VFR VFR VFR VFR VFR VFR VFR VFR VFR VFR
WX -- -- -- -- -- -- -- -- -- -- -- -- -- --
WDir 200 200 200 200 200 200 180 180 180 180 180 180 180 180
WSpd 10 7 7 7 7 7 5 5 5 5 5 5 5 5
WGst -- -- -- -- -- -- -- -- -- -- -- -- -- --

Raw TAF
KHDC 241725Z 2418/2518 20007KT P6SM SCT035 BKN050
  FM250000 18005KT P6SM FEW045 FEW250
  FM251100 00000KT P6SM BKN015
  FM251400 00000KT P6SM SCT025


Raw METAR
KHDC 241755Z AUTO 20010KT 10SM SCT039 32/23 A3001 RMK AO2
KHDC 241735Z AUTO 21006KT 10SM SCT042 33/23 A3001 RMK AO2
KHDC 241715Z AUTO 18006KT 10SM SCT046 33/23 A3001 RMK AO2
KHDC 241655Z AUTO 24006KT 10SM CLR 32/23 A3002 RMK AO2
KHDC 241635Z AUTO 23006KT 200V260 10SM CLR 32/23 A3002 RMK AO2
KHDC 241615Z AUTO 20009KT 10SM SCT035 SCT042 32/23 A3002 RMK AO2
KHDC 241555Z AUTO 20008KT 10SM SCT033 BKN042 31/23 A3002 RMK AO2
KHDC 241535Z AUTO 26007KT 10SM SCT031 BKN039 30/23 A3002 RMK AO2

METAR Board
Radar Display
Forecast Discussion

FOR SITUATIONAL AWARENESS. NOT TO BE USED FOR FLIGHT PLANNING PURPOSES.